Time;durP1;ratioP1;P1;durP2;ratioP2;P2;SDS_P1;SDS_P2;PMS_P1;PMS_P2;Temp;Humidity;BMP_temperature;BMP_pressure;BME280_temperature;BME280_humidity;BME280_pressure;Samples;Min_cycle;Max_cycle;Signal;HPM_P1;HPM_P2
2023/05/24 00:06:45;;;;;;;3.08;1.38;;;;;;;18.98;53.26;102060.16;20809680;28;20088;-66
2023/05/24 00:16:47;;;;;;;3.67;1.30;;;;;;;18.95;53.38;102045.00;20804579;28;20165;-66
2023/05/24 00:26:49;;;;;;;3.67;1.33;;;;;;;18.94;53.19;102039.75;20807399;28;20520;-66
2023/05/24 00:36:51;;;;;;;4.32;1.60;;;;;;;18.92;53.42;102042.53;20821535;28;20046;-67
2023/05/24 00:46:53;;;;;;;4.50;1.60;;;;;;;18.91;53.07;102032.72;20818582;28;20059;-67
2023/05/24 00:56:55;;;;;;;3.53;1.42;;;;;;;18.90;53.12;102020.22;20821096;28;20528;-67
2023/05/24 01:07:02;;;;;;;2.92;1.30;;;;;;;18.88;52.69;102016.78;20805419;28;20072;-66
2023/05/24 01:17:26;;;;;;;2.60;1.23;;;;;;;18.87;52.96;102015.06;20816366;28;20045;-67
2023/05/24 01:27:30;;;;;;;2.83;1.10;;;;;;;18.84;52.62;102005.38;20817095;28;20049;-66
2023/05/24 01:37:32;;;;;;;3.00;1.43;;;;;;;18.83;52.60;102014.44;20801928;28;20449;-66
2023/05/24 01:47:46;;;;;;;3.63;1.75;;;;;;;18.81;52.70;102004.72;20817616;28;20045;-66
2023/05/24 01:57:49;;;;;;;3.60;1.30;;;;;;;18.79;52.57;102006.69;20813246;28;20734;-67
2023/05/24 02:07:51;;;;;;;4.45;1.63;;;;;;;18.78;52.54;102008.53;20797820;28;20099;-66
2023/05/24 02:17:54;;;;;;;3.15;1.30;;;;;;;18.75;52.54;101997.09;20812147;28;20129;-66
2023/05/24 02:27:56;;;;;;;3.38;1.48;;;;;;;18.75;52.17;101991.69;20814311;28;20128;-66
2023/05/24 02:37:58;;;;;;;3.42;1.50;;;;;;;18.73;52.29;101994.50;20807092;28;20509;-66
2023/05/24 02:48:00;;;;;;;3.03;1.38;;;;;;;18.72;52.40;101990.06;20814656;28;20047;-66
2023/05/24 02:58:01;;;;;;;3.97;1.55;;;;;;;18.70;52.38;101990.22;20812475;28;20539;-66
2023/05/24 03:08:05;;;;;;;3.53;1.40;;;;;;;18.69;52.17;101982.22;20811618;28;20051;-66
2023/05/24 03:18:07;;;;;;;3.83;1.50;;;;;;;18.68;52.39;101985.91;20788919;28;20048;-66
2023/05/24 03:28:09;;;;;;;4.28;1.60;;;;;;;18.66;52.34;101985.16;20810517;28;20046;-66
2023/05/24 03:38:11;;;;;;;2.40;1.20;;;;;;;18.65;52.37;101969.94;20802723;28;20643;-66
2023/05/24 03:48:15;;;;;;;2.80;1.30;;;;;;;18.65;52.40;101984.31;20810199;28;20072;-66
2023/05/24 03:58:17;;;;;;;2.47;1.23;;;;;;;18.64;52.64;101977.19;20810529;28;20136;-66
2023/05/24 04:08:19;;;;;;;2.22;1.27;;;;;;;18.64;52.72;101987.97;20808595;28;20091;-66
2023/05/24 04:18:20;;;;;;;3.28;1.52;;;;;;;18.62;52.94;101979.16;20818546;28;20038;-66
2023/05/24 04:28:22;;;;;;;3.08;1.70;;;;;;;18.60;53.06;101975.69;20796598;28;20048;-66
2023/05/24 04:38:28;;;;;;;2.95;1.63;;;;;;;18.61;53.09;101982.81;20804512;28;20045;-66
2023/05/24 04:48:29;;;;;;;3.50;1.58;;;;;;;18.59;53.34;101990.16;20808088;28;20060;-66
2023/05/24 04:58:32;;;;;;;2.92;1.30;;;;;;;18.59;53.43;102005.47;20812514;28;20049;-66
2023/05/24 05:08:33;;;;;;;3.70;1.60;;;;;;;18.59;53.56;102000.94;20886979;28;20519;-66
2023/05/24 05:18:35;;;;;;;4.60;1.85;;;;;;;18.61;53.59;101999.00;20904053;28;20131;-66
2023/05/24 05:28:36;;;;;;;2.70;1.70;;;;;;;18.63;53.73;102002.44;20912415;28;20052;-66
2023/05/24 05:38:38;;;;;;;3.03;1.50;;;;;;;18.65;53.90;102019.38;20851439;28;20493;-66
2023/05/24 05:48:40;;;;;;;4.15;1.90;;;;;;;18.67;53.99;102008.44;20824483;28;20435;-66
2023/05/24 05:58:43;;;;;;;5.22;1.80;;;;;;;18.68;54.20;102008.34;20792700;28;20128;-65
2023/05/24 06:08:45;;;;;;;3.20;1.50;;;;;;;18.74;55.17;102019.66;20791168;28;20049;-66
2023/05/24 06:18:47;;;;;;;2.30;0.93;;;;;;;18.80;56.39;102020.06;20785317;28;20536;-66
2023/05/24 06:29:07;;;;;;;4.10;0.95;;;;;;;18.94;57.21;102023.56;20781323;28;20050;-66
2023/05/24 06:39:09;;;;;;;2.70;1.00;;;;;;;19.08;57.82;102025.25;20796764;28;20125;-67
2023/05/24 06:49:11;;;;;;;3.00;1.40;;;;;;;19.14;58.40;102027.47;20782853;28;20060;-69
2023/05/24 06:59:13;;;;;;;5.63;1.73;;;;;;;19.18;59.86;102031.66;20781086;28;20063;-68
2023/05/24 07:09:14;;;;;;;5.28;1.40;;;;;;;19.26;59.84;102034.63;20786154;28;20453;-68
2023/05/24 07:19:16;;;;;;;4.68;1.40;;;;;;;19.37;59.66;102041.91;20792564;28;20136;-68
2023/05/24 07:29:18;;;;;;;6.00;1.58;;;;;;;19.30;59.25;102050.59;20797288;28;20136;-68
2023/05/24 07:39:20;;;;;;;4.78;1.60;;;;;;;19.23;59.62;102045.66;20780348;28;21679;-69
2023/05/24 07:49:22;;;;;;;3.78;1.63;;;;;;;19.59;59.72;102048.31;20797935;28;20413;-70
2023/05/24 07:59:24;;;;;;;3.65;1.52;;;;;;;19.52;59.82;102052.50;20779781;28;20059;-69
2023/05/24 08:09:27;;;;;;;3.38;1.50;;;;;;;19.46;59.66;102053.84;20779552;28;20053;-69
2023/05/24 08:19:34;;;;;;;2.93;1.27;;;;;;;19.42;60.08;102055.03;20779525;28;20077;-69
2023/05/24 08:29:36;;;;;;;3.13;1.02;;;;;;;19.47;60.28;102065.50;20786153;28;20165;-66
2023/05/24 08:39:37;;;;;;;3.85;1.60;;;;;;;20.24;58.99;102064.00;20800029;28;20050;-66
2023/05/24 08:49:40;;;;;;;5.05;1.77;;;;;;;20.49;57.34;102078.25;20776264;28;20095;-65
2023/05/24 08:59:42;;;;;;;2.28;1.20;;;;;;;20.23;57.65;102071.28;20801108;28;20045;-65
2023/05/24 09:09:53;;;;;;;3.90;1.42;;;;;;;20.09;58.42;102069.69;20777736;28;20081;-66
2023/05/24 09:19:57;;;;;;;4.55;1.08;;;;;;;19.93;59.54;102078.13;20792182;28;20045;-66
2023/05/24 09:30:00;;;;;;;1.88;1.08;;;;;;;19.84;60.19;102081.53;20792605;28;20057;-65
2023/05/24 09:40:05;;;;;;;3.88;1.40;;;;;;;19.81;60.51;102084.47;20789091;28;20046;-65
2023/05/24 09:50:16;;;;;;;2.35;1.10;;;;;;;19.83;60.42;102082.53;20806787;28;20042;-65
2023/05/24 10:00:22;;;;;;;1.98;1.08;;;;;;;19.84;59.89;102074.28;20806444;28;21125;-65
2023/05/24 10:10:29;;;;;;;1.92;1.00;;;;;;;19.89;59.50;102064.97;20803084;28;20852;-66
2023/05/24 10:20:30;;;;;;;1.52;1.00;;;;;;;19.91;59.42;102073.84;20796043;28;20106;-65
2023/05/24 10:30:49;;;;;;;2.25;1.10;;;;;;;20.00;59.03;102075.81;20790338;28;20059;-65
2023/05/24 10:40:51;;;;;;;2.10;1.00;;;;;;;20.06;58.38;102082.56;20789399;28;20053;-65
2023/05/24 10:50:53;;;;;;;2.60;0.90;;;;;;;20.06;57.94;102083.44;20796550;28;20046;-65
2023/05/24 11:00:55;;;;;;;2.35;1.10;;;;;;;20.03;57.81;102080.09;20786470;28;20575;-65
2023/05/24 11:11:10;;;;;;;2.35;0.95;;;;;;;19.96;58.18;102077.06;20786638;28;20056;-65
2023/05/24 11:21:28;;;;;;;2.20;1.15;;;;;;;19.99;58.25;102066.84;20798517;28;20076;-65
2023/05/24 11:31:30;;;;;;;2.17;1.00;;;;;;;20.04;57.85;102069.19;20788585;28;20053;-66
2023/05/24 11:41:37;;;;;;;1.00;0.70;;;;;;;20.12;57.55;102074.84;20794218;28;20049;-66
2023/05/24 11:51:39;;;;;;;1.45;0.85;;;;;;;20.07;57.21;102085.16;20788412;28;20042;-66
2023/05/24 12:01:41;;;;;;;1.88;0.90;;;;;;;20.07;57.42;102095.97;20785419;28;20394;-66
2023/05/24 12:11:47;;;;;;;2.60;1.00;;;;;;;20.07;57.54;102106.78;20790063;28;20048;-65
2023/05/24 12:21:49;;;;;;;1.63;0.90;;;;;;;20.10;57.44;102100.25;20792762;28;20408;-65
2023/05/24 12:31:54;;;;;;;2.42;1.25;;;;;;;20.14;57.58;102102.59;20805024;28;20057;-65
2023/05/24 12:41:57;;;;;;;3.00;1.10;;;;;;;20.14;58.76;102101.75;20788383;28;20123;-65
2023/05/24 12:52:00;;;;;;;2.40;1.20;;;;;;;20.10;59.75;102103.84;20780263;28;20049;-66
2023/05/24 13:02:02;;;;;;;1.90;1.10;;;;;;;20.05;60.21;102105.16;20778448;28;22186;-66
2023/05/24 13:12:04;;;;;;;4.60;1.33;;;;;;;20.03;61.42;102109.84;20779355;28;20045;-67
2023/05/24 13:22:06;;;;;;;3.78;1.10;;;;;;;20.02;62.25;102106.28;20788469;28;20041;-68
2023/05/24 13:32:08;;;;;;;3.50;1.10;;;;;;;20.03;61.90;102110.72;20792685;28;20449;-68
2023/05/24 13:42:10;;;;;;;5.80;1.50;;;;;;;19.99;61.80;102093.03;20782292;28;20049;-66
2023/05/24 13:52:11;;;;;;;4.63;1.30;;;;;;;20.06;61.90;102099.66;20772730;28;20068;-67
2023/05/24 14:02:13;;;;;;;2.17;1.13;;;;;;;20.06;61.80;102106.88;20791772;28;20600;-66
2023/05/24 14:12:14;;;;;;;4.05;1.17;;;;;;;20.09;61.53;102109.34;20783371;28;20056;-68
2023/05/24 14:22:16;;;;;;;3.47;1.30;;;;;;;20.13;62.64;102109.00;20760235;28;20128;-70
2023/05/24 14:32:18;;;;;;;2.58;1.10;;;;;;;20.18;65.68;102113.19;20795084;28;20053;-69
2023/05/24 14:42:20;;;;;;;1.60;0.90;;;;;;;20.23;67.68;102117.25;20803982;28;20072;-71
2023/05/24 14:52:22;;;;;;;1.80;0.85;;;;;;;20.18;70.73;102087.00;20804129;28;20065;-68
2023/05/24 15:02:23;;;;;;;2.33;0.95;;;;;;;20.39;70.40;102122.28;20797694;28;20061;-68
2023/05/24 15:12:25;;;;;;;2.22;1.25;;;;;;;20.40;69.32;102123.13;20803067;28;20041;-65
2023/05/24 15:22:27;;;;;;;3.55;1.55;;;;;;;20.36;67.58;102127.06;20760942;28;20132;-63
2023/05/24 15:32:29;;;;;;;4.72;1.10;;;;;;;20.33;70.89;102135.44;20792588;28;20049;-65
2023/05/24 15:42:31;;;;;;;2.33;1.10;;;;;;;20.26;66.75;102119.69;20795138;28;20042;-66
2023/05/24 15:52:33;;;;;;;3.20;1.05;;;;;;;20.14;66.44;102116.13;20821481;28;20045;-66
2023/05/24 16:02:35;;;;;;;1.90;1.10;;;;;;;20.12;66.19;102119.94;20824082;28;20057;-66
2023/05/24 16:12:37;;;;;;;2.95;1.20;;;;;;;20.09;66.14;102112.94;20802187;28;20049;-67
2023/05/24 16:22:45;;;;;;;2.10;1.33;;;;;;;20.07;65.79;102098.69;20814172;28;20136;-66
2023/05/24 16:32:47;;;;;;;2.20;0.95;;;;;;;20.05;65.55;102103.34;20798977;28;20464;-65
2023/05/24 16:42:50;;;;;;;1.83;1.10;;;;;;;20.03;65.94;102094.50;20800357;28;20125;-66
2023/05/24 16:52:51;;;;;;;1.67;0.90;;;;;;;20.00;65.89;102090.19;20791260;28;20049;-66
2023/05/24 17:02:53;;;;;;;2.03;0.90;;;;;;;19.97;65.26;102095.00;20785388;28;20077;-65
2023/05/24 17:12:55;;;;;;;2.20;0.70;;;;;;;19.95;65.02;102086.97;20829585;28;20536;-65
2023/05/24 17:22:56;;;;;;;1.60;0.88;;;;;;;19.92;64.44;102102.59;20817677;28;20053;-66
2023/05/24 17:32:58;;;;;;;1.98;0.82;;;;;;;19.88;64.04;102112.75;20813197;28;20049;-65
2023/05/24 17:43:01;;;;;;;1.38;0.80;;;;;;;19.84;63.62;102112.09;20804290;28;20472;-65
2023/05/24 17:53:03;;;;;;;1.45;0.95;;;;;;;19.81;63.18;102123.16;20803458;28;20136;-66
2023/05/24 18:03:13;;;;;;;1.08;0.90;;;;;;;19.76;63.05;102116.41;20788308;28;20049;-65
2023/05/24 18:13:15;;;;;;;2.22;1.00;;;;;;;19.76;62.55;102130.75;20806246;28;20053;-65
2023/05/24 18:23:16;;;;;;;1.77;0.80;;;;;;;19.73;62.21;102127.47;20802962;28;20067;-65
2023/05/24 18:33:18;;;;;;;1.23;0.90;;;;;;;19.70;62.04;102131.25;20801062;28;20136;-65
2023/05/24 18:43:20;;;;;;;1.83;0.90;;;;;;;19.70;61.76;102142.06;20802981;28;20095;-65
2023/05/24 18:53:22;;;;;;;1.85;0.90;;;;;;;19.68;61.44;102150.28;20804647;28;20418;-65
2023/05/24 19:03:23;;;;;;;1.67;0.93;;;;;;;19.64;61.37;102147.94;20800367;28;20049;-65
2023/05/24 19:13:26;;;;;;;1.70;1.10;;;;;;;19.65;61.33;102155.91;20802807;28;20588;-65
2023/05/24 19:23:27;;;;;;;2.25;0.85;;;;;;;19.61;61.22;102170.63;20797798;28;20045;-65
2023/05/24 19:33:29;;;;;;;1.70;0.82;;;;;;;19.59;61.15;102169.88;20804488;28;20106;-65
2023/05/24 19:43:31;;;;;;;1.83;1.10;;;;;;;19.59;61.10;102182.53;20795622;28;20052;-65
2023/05/24 19:53:32;;;;;;;1.55;0.90;;;;;;;19.56;60.94;102199.81;20804216;28;20063;-65
2023/05/24 20:03:34;;;;;;;1.67;0.90;;;;;;;19.55;60.89;102200.81;20797469;28;20460;-66
2023/05/24 20:13:36;;;;;;;1.23;0.82;;;;;;;19.53;60.46;102210.88;20806051;28;20049;-65
2023/05/24 20:23:37;;;;;;;1.55;1.00;;;;;;;19.50;60.47;102222.78;20796287;28;20041;-65
2023/05/24 20:33:39;;;;;;;1.77;0.95;;;;;;;19.49;60.37;102242.66;20793137;28;20050;-65
2023/05/24 20:43:41;;;;;;;1.23;0.60;;;;;;;19.46;60.14;102245.59;20792844;28;20076;-65
2023/05/24 20:53:44;;;;;;;1.88;0.80;;;;;;;19.43;59.86;102248.50;20806989;28;20064;-65
2023/05/24 21:03:45;;;;;;;0.98;0.70;;;;;;;19.42;59.72;102262.97;20810546;28;20053;-65
2023/05/24 21:13:47;;;;;;;1.25;0.80;;;;;;;19.39;60.07;102257.81;20808738;28;20077;-65
2023/05/24 21:23:49;;;;;;;1.65;0.80;;;;;;;19.37;59.63;102254.34;20825217;28;20475;-65
2023/05/24 21:33:51;;;;;;;1.45;0.80;;;;;;;19.28;59.86;102258.63;20826474;28;20455;-65
2023/05/24 21:43:52;;;;;;;1.08;0.60;;;;;;;19.34;59.81;102260.84;20814375;28;20057;-65
2023/05/24 21:53:54;;;;;;;1.73;0.95;;;;;;;19.31;59.73;102257.50;20804704;28;20409;-65
2023/05/24 22:03:55;;;;;;;1.65;1.02;;;;;;;19.28;59.65;102264.84;20804869;28;20042;-65
2023/05/24 22:13:57;;;;;;;1.15;0.80;;;;;;;19.29;59.54;102273.84;20804295;28;20042;-65
2023/05/24 22:23:59;;;;;;;1.55;1.15;;;;;;;19.26;59.51;102283.00;20800466;28;20053;-65
2023/05/24 22:34:01;;;;;;;0.98;0.70;;;;;;;19.24;59.36;102290.34;20803024;28;20052;-65
2023/05/24 22:44:03;;;;;;;1.63;1.02;;;;;;;19.23;59.52;102277.84;20787518;28;20087;-65
2023/05/24 22:54:04;;;;;;;0.93;0.70;;;;;;;19.20;59.38;102278.06;20797282;28;20077;-65
2023/05/24 23:04:06;;;;;;;1.65;0.88;;;;;;;19.18;59.18;102277.31;20802997;28;20420;-65
2023/05/24 23:14:21;;;;;;;0.80;0.80;;;;;;;19.18;59.04;102293.50;20816921;28;20041;-65
2023/05/24 23:24:25;;;;;;;1.13;0.90;;;;;;;19.16;58.90;102297.28;20812199;28;20125;-65
2023/05/24 23:34:27;;;;;;;1.85;1.17;;;;;;;19.10;58.91;102287.81;20794066;28;20049;-65
2023/05/24 23:44:28;;;;;;;2.30;1.10;;;;;;;19.12;58.83;102307.44;20796209;28;20584;-65
2023/05/24 23:54:30;;;;;;;1.20;1.00;;;;;;;19.06;58.65;102300.66;20800945;28;20136;-65
